sensor_id;sensor_type;location;lat;lon;timestamp;P1;durP1;ratioP1;P2;durP2;ratioP2
76863;SDS011;65834;52.364;9.754;2023-07-20T00:01:42;3.80;;;1.40;;
76863;SDS011;65834;52.364;9.754;2023-07-20T00:04:12;2.00;;;0.98;;
76863;SDS011;65834;52.364;9.754;2023-07-20T00:06:42;2.22;;;1.27;;
76863;SDS011;65834;52.364;9.754;2023-07-20T00:09:12;3.35;;;1.10;;
76863;SDS011;65834;52.364;9.754;2023-07-20T00:11:47;2.15;;;1.10;;
76863;SDS011;65834;52.364;9.754;2023-07-20T00:14:18;3.95;;;1.60;;
76863;SDS011;65834;52.364;9.754;2023-07-20T00:16:52;2.58;;;1.40;;
76863;SDS011;65834;52.364;9.754;2023-07-20T00:19:25;2.65;;;1.20;;
76863;SDS011;65834;52.364;9.754;2023-07-20T00:21:56;2.80;;;1.30;;
76863;SDS011;65834;52.364;9.754;2023-07-20T00:24:27;3.90;;;1.45;;
76863;SDS011;65834;52.364;9.754;2023-07-20T00:26:57;1.75;;;1.10;;
76863;SDS011;65834;52.364;9.754;2023-07-20T00:29:29;4.88;;;1.10;;
76863;SDS011;65834;52.364;9.754;2023-07-20T00:32:01;3.60;;;1.05;;
76863;SDS011;65834;52.364;9.754;2023-07-20T00:34:31;3.67;;;1.38;;
76863;SDS011;65834;52.364;9.754;2023-07-20T00:37:01;2.65;;;1.30;;
76863;SDS011;65834;52.364;9.754;2023-07-20T00:39:31;4.75;;;1.60;;
76863;SDS011;65834;52.364;9.754;2023-07-20T00:42:00;2.10;;;1.15;;
76863;SDS011;65834;52.364;9.754;2023-07-20T00:44:30;5.63;;;1.63;;
76863;SDS011;65834;52.364;9.754;2023-07-20T00:47:03;3.30;;;1.40;;
76863;SDS011;65834;52.364;9.754;2023-07-20T00:49:34;3.25;;;1.60;;
76863;SDS011;65834;52.364;9.754;2023-07-20T00:52:04;2.55;;;1.30;;
76863;SDS011;65834;52.364;9.754;2023-07-20T00:54:37;3.10;;;1.30;;
76863;SDS011;65834;52.364;9.754;2023-07-20T00:57:06;1.85;;;1.45;;
76863;SDS011;65834;52.364;9.754;2023-07-20T00:59:37;2.55;;;1.33;;
76863;SDS011;65834;52.364;9.754;2023-07-20T01:02:09;5.00;;;1.50;;
76863;SDS011;65834;52.364;9.754;2023-07-20T01:07:10;2.17;;;1.30;;
76863;SDS011;65834;52.364;9.754;2023-07-20T01:09:44;5.95;;;1.80;;
76863;SDS011;65834;52.364;9.754;2023-07-20T01:12:18;3.10;;;1.50;;
76863;SDS011;65834;52.364;9.754;2023-07-20T01:14:55;2.90;;;1.40;;
76863;SDS011;65834;52.364;9.754;2023-07-20T01:17:27;2.90;;;1.30;;
76863;SDS011;65834;52.364;9.754;2023-07-20T01:19:57;4.32;;;1.60;;
76863;SDS011;65834;52.364;9.754;2023-07-20T01:22:33;2.13;;;1.20;;
76863;SDS011;65834;52.364;9.754;2023-07-20T01:25:20;5.85;;;1.63;;
76863;SDS011;65834;52.364;9.754;2023-07-20T01:30:43;2.75;;;1.20;;
76863;SDS011;65834;52.364;9.754;2023-07-20T01:33:23;2.50;;;1.35;;
76863;SDS011;65834;52.364;9.754;2023-07-20T01:35:55;3.63;;;1.48;;
76863;SDS011;65834;52.364;9.754;2023-07-20T01:38:27;3.35;;;1.50;;
76863;SDS011;65834;52.364;9.754;2023-07-20T01:40:58;2.78;;;1.35;;
76863;SDS011;65834;52.364;9.754;2023-07-20T01:43:28;3.70;;;1.30;;
76863;SDS011;65834;52.364;9.754;2023-07-20T01:45:57;2.67;;;1.40;;
76863;SDS011;65834;52.364;9.754;2023-07-20T01:48:31;3.75;;;1.30;;
76863;SDS011;65834;52.364;9.754;2023-07-20T01:51:01;3.17;;;1.50;;
76863;SDS011;65834;52.364;9.754;2023-07-20T01:53:30;4.07;;;1.35;;
76863;SDS011;65834;52.364;9.754;2023-07-20T01:59:25;2.10;;;1.38;;
76863;SDS011;65834;52.364;9.754;2023-07-20T02:01:54;6.10;;;1.50;;
76863;SDS011;65834;52.364;9.754;2023-07-20T02:04:26;2.55;;;1.30;;
76863;SDS011;65834;52.364;9.754;2023-07-20T02:06:57;3.75;;;1.38;;
76863;SDS011;65834;52.364;9.754;2023-07-20T02:09:27;3.30;;;1.20;;
76863;SDS011;65834;52.364;9.754;2023-07-20T02:11:57;4.80;;;1.60;;
76863;SDS011;65834;52.364;9.754;2023-07-20T02:14:26;3.65;;;1.73;;
76863;SDS011;65834;52.364;9.754;2023-07-20T02:16:56;3.35;;;1.38;;
76863;SDS011;65834;52.364;9.754;2023-07-20T02:19:30;3.40;;;1.40;;
76863;SDS011;65834;52.364;9.754;2023-07-20T02:24:29;5.18;;;1.20;;
76863;SDS011;65834;52.364;9.754;2023-07-20T02:26:59;2.78;;;1.25;;
76863;SDS011;65834;52.364;9.754;2023-07-20T02:29:29;2.55;;;1.40;;
76863;SDS011;65834;52.364;9.754;2023-07-20T02:31:58;2.08;;;1.33;;
76863;SDS011;65834;52.364;9.754;2023-07-20T02:34:30;2.78;;;1.10;;
76863;SDS011;65834;52.364;9.754;2023-07-20T02:37:00;2.17;;;1.20;;
76863;SDS011;65834;52.364;9.754;2023-07-20T02:39:30;3.88;;;1.13;;
76863;SDS011;65834;52.364;9.754;2023-07-20T02:42:00;5.40;;;1.50;;
76863;SDS011;65834;52.364;9.754;2023-07-20T02:44:30;5.05;;;1.48;;
76863;SDS011;65834;52.364;9.754;2023-07-20T02:46:59;3.08;;;1.15;;
76863;SDS011;65834;52.364;9.754;2023-07-20T02:49:32;2.88;;;1.30;;
76863;SDS011;65834;52.364;9.754;2023-07-20T02:52:02;3.47;;;1.42;;
76863;SDS011;65834;52.364;9.754;2023-07-20T02:54:32;3.45;;;1.38;;
76863;SDS011;65834;52.364;9.754;2023-07-20T02:57:02;2.75;;;1.20;;
76863;SDS011;65834;52.364;9.754;2023-07-20T02:59:32;2.42;;;1.40;;
76863;SDS011;65834;52.364;9.754;2023-07-20T03:02:01;4.85;;;1.45;;
76863;SDS011;65834;52.364;9.754;2023-07-20T03:04:34;3.13;;;1.13;;
76863;SDS011;65834;52.364;9.754;2023-07-20T03:07:04;5.43;;;1.40;;
76863;SDS011;65834;52.364;9.754;2023-07-20T03:09:34;2.22;;;1.20;;
76863;SDS011;65834;52.364;9.754;2023-07-20T03:12:04;3.25;;;1.40;;
76863;SDS011;65834;52.364;9.754;2023-07-20T03:14:35;3.58;;;1.50;;
76863;SDS011;65834;52.364;9.754;2023-07-20T03:17:05;4.72;;;1.50;;
76863;SDS011;65834;52.364;9.754;2023-07-20T03:19:37;3.05;;;1.42;;
76863;SDS011;65834;52.364;9.754;2023-07-20T03:22:08;3.15;;;1.30;;
76863;SDS011;65834;52.364;9.754;2023-07-20T03:24:38;2.42;;;1.30;;
76863;SDS011;65834;52.364;9.754;2023-07-20T03:27:07;3.45;;;1.60;;
76863;SDS011;65834;52.364;9.754;2023-07-20T03:29:37;3.00;;;1.30;;
76863;SDS011;65834;52.364;9.754;2023-07-20T03:32:07;4.30;;;1.63;;
76863;SDS011;65834;52.364;9.754;2023-07-20T03:34:40;3.95;;;1.40;;
76863;SDS011;65834;52.364;9.754;2023-07-20T03:37:10;4.00;;;1.42;;
76863;SDS011;65834;52.364;9.754;2023-07-20T03:39:42;2.60;;;1.40;;
76863;SDS011;65834;52.364;9.754;2023-07-20T03:42:11;2.55;;;1.27;;
76863;SDS011;65834;52.364;9.754;2023-07-20T03:44:41;4.57;;;1.40;;
76863;SDS011;65834;52.364;9.754;2023-07-20T03:47:10;3.85;;;1.45;;
76863;SDS011;65834;52.364;9.754;2023-07-20T03:49:43;3.08;;;1.30;;
76863;SDS011;65834;52.364;9.754;2023-07-20T03:52:12;2.97;;;1.10;;
76863;SDS011;65834;52.364;9.754;2023-07-20T03:54:42;2.28;;;1.23;;
76863;SDS011;65834;52.364;9.754;2023-07-20T03:57:12;3.08;;;1.50;;
76863;SDS011;65834;52.364;9.754;2023-07-20T03:59:44;2.83;;;1.17;;
76863;SDS011;65834;52.364;9.754;2023-07-20T04:02:14;5.30;;;1.33;;
76863;SDS011;65834;52.364;9.754;2023-07-20T04:04:46;2.55;;;1.20;;
76863;SDS011;65834;52.364;9.754;2023-07-20T04:07:16;2.38;;;1.50;;
76863;SDS011;65834;52.364;9.754;2023-07-20T04:09:46;2.10;;;1.15;;
76863;SDS011;65834;52.364;9.754;2023-07-20T04:12:15;5.10;;;1.40;;
76863;SDS011;65834;52.364;9.754;2023-07-20T04:14:45;1.45;;;1.08;;
76863;SDS011;65834;52.364;9.754;2023-07-20T04:17:14;1.83;;;1.05;;
76863;SDS011;65834;52.364;9.754;2023-07-20T04:19:47;3.10;;;1.52;;
76863;SDS011;65834;52.364;9.754;2023-07-20T04:22:16;3.08;;;1.23;;
76863;SDS011;65834;52.364;9.754;2023-07-20T04:24:47;3.42;;;1.40;;
76863;SDS011;65834;52.364;9.754;2023-07-20T04:27:17;3.92;;;1.50;;
76863;SDS011;65834;52.364;9.754;2023-07-20T04:29:46;4.15;;;1.70;;
76863;SDS011;65834;52.364;9.754;2023-07-20T04:32:16;4.85;;;1.60;;
76863;SDS011;65834;52.364;9.754;2023-07-20T04:34:48;4.75;;;1.77;;
76863;SDS011;65834;52.364;9.754;2023-07-20T04:37:19;2.95;;;1.48;;
76863;SDS011;65834;52.364;9.754;2023-07-20T04:39:49;3.15;;;1.40;;
76863;SDS011;65834;52.364;9.754;2023-07-20T04:42:19;4.28;;;1.30;;
76863;SDS011;65834;52.364;9.754;2023-07-20T04:44:48;2.83;;;1.20;;
76863;SDS011;65834;52.364;9.754;2023-07-20T04:47:18;2.15;;;1.27;;
76863;SDS011;65834;52.364;9.754;2023-07-20T04:49:51;1.95;;;1.10;;
76863;SDS011;65834;52.364;9.754;2023-07-20T04:52:21;4.53;;;1.20;;
76863;SDS011;65834;52.364;9.754;2023-07-20T04:55:06;4.47;;;1.10;;
76863;SDS011;65834;52.364;9.754;2023-07-20T04:57:37;2.78;;;1.30;;
76863;SDS011;65834;52.364;9.754;2023-07-20T05:00:07;3.92;;;1.35;;
76863;SDS011;65834;52.364;9.754;2023-07-20T05:02:40;2.95;;;1.23;;
76863;SDS011;65834;52.364;9.754;2023-07-20T05:05:13;2.65;;;1.70;;
76863;SDS011;65834;52.364;9.754;2023-07-20T05:07:42;4.85;;;1.63;;
76863;SDS011;65834;52.364;9.754;2023-07-20T05:10:12;4.07;;;1.60;;
76863;SDS011;65834;52.364;9.754;2023-07-20T05:12:42;5.18;;;2.08;;
76863;SDS011;65834;52.364;9.754;2023-07-20T05:15:12;3.80;;;1.67;;
76863;SDS011;65834;52.364;9.754;2023-07-20T05:17:41;6.15;;;2.38;;
76863;SDS011;65834;52.364;9.754;2023-07-20T05:20:14;5.45;;;2.20;;
76863;SDS011;65834;52.364;9.754;2023-07-20T05:22:43;4.88;;;2.30;;
76863;SDS011;65834;52.364;9.754;2023-07-20T05:25:13;6.57;;;2.33;;
76863;SDS011;65834;52.364;9.754;2023-07-20T05:27:44;3.63;;;2.00;;
76863;SDS011;65834;52.364;9.754;2023-07-20T05:30:14;4.53;;;2.33;;
76863;SDS011;65834;52.364;9.754;2023-07-20T05:32:44;5.45;;;2.10;;
76863;SDS011;65834;52.364;9.754;2023-07-20T05:35:20;6.80;;;2.30;;
76863;SDS011;65834;52.364;9.754;2023-07-20T05:37:49;4.15;;;2.10;;
76863;SDS011;65834;52.364;9.754;2023-07-20T05:40:19;4.80;;;1.83;;
76863;SDS011;65834;52.364;9.754;2023-07-20T05:42:49;2.65;;;1.60;;
76863;SDS011;65834;52.364;9.754;2023-07-20T05:45:20;5.57;;;2.00;;
76863;SDS011;65834;52.364;9.754;2023-07-20T05:47:50;3.47;;;1.85;;
76863;SDS011;65834;52.364;9.754;2023-07-20T05:50:22;4.00;;;2.13;;
76863;SDS011;65834;52.364;9.754;2023-07-20T05:52:52;6.22;;;2.30;;
76863;SDS011;65834;52.364;9.754;2023-07-20T05:55:22;5.53;;;2.35;;
76863;SDS011;65834;52.364;9.754;2023-07-20T05:57:52;6.70;;;2.85;;
76863;SDS011;65834;52.364;9.754;2023-07-20T06:00:22;4.93;;;2.17;;
76863;SDS011;65834;52.364;9.754;2023-07-20T06:02:53;5.57;;;2.42;;
76863;SDS011;65834;52.364;9.754;2023-07-20T06:05:25;7.20;;;3.83;;
76863;SDS011;65834;52.364;9.754;2023-07-20T06:07:55;3.83;;;1.70;;
76863;SDS011;65834;52.364;9.754;2023-07-20T06:10:27;5.18;;;2.10;;
76863;SDS011;65834;52.364;9.754;2023-07-20T06:12:57;6.25;;;2.03;;
76863;SDS011;65834;52.364;9.754;2023-07-20T06:15:28;3.58;;;2.00;;
76863;SDS011;65834;52.364;9.754;2023-07-20T06:18:02;3.97;;;2.30;;
76863;SDS011;65834;52.364;9.754;2023-07-20T06:20:34;5.32;;;2.10;;
76863;SDS011;65834;52.364;9.754;2023-07-20T06:23:04;5.32;;;2.00;;
76863;SDS011;65834;52.364;9.754;2023-07-20T06:25:34;3.78;;;1.70;;
76863;SDS011;65834;52.364;9.754;2023-07-20T06:28:03;4.90;;;2.05;;
76863;SDS011;65834;52.364;9.754;2023-07-20T06:30:33;4.47;;;2.00;;
76863;SDS011;65834;52.364;9.754;2023-07-20T06:33:03;5.60;;;2.28;;
76863;SDS011;65834;52.364;9.754;2023-07-20T06:35:36;5.07;;;2.10;;
76863;SDS011;65834;52.364;9.754;2023-07-20T06:38:05;4.47;;;1.67;;
76863;SDS011;65834;52.364;9.754;2023-07-20T06:40:38;4.43;;;1.95;;
76863;SDS011;65834;52.364;9.754;2023-07-20T06:43:08;5.05;;;1.88;;
76863;SDS011;65834;52.364;9.754;2023-07-20T06:48:10;3.95;;;2.17;;
76863;SDS011;65834;52.364;9.754;2023-07-20T06:50:42;4.88;;;2.38;;
76863;SDS011;65834;52.364;9.754;2023-07-20T06:53:12;4.50;;;2.10;;
76863;SDS011;65834;52.364;9.754;2023-07-20T06:55:42;4.70;;;2.38;;
76863;SDS011;65834;52.364;9.754;2023-07-20T06:58:13;6.53;;;2.70;;
76863;SDS011;65834;52.364;9.754;2023-07-20T07:00:42;5.10;;;2.90;;
76863;SDS011;65834;52.364;9.754;2023-07-20T07:03:12;5.68;;;2.47;;
76863;SDS011;65834;52.364;9.754;2023-07-20T07:05:45;6.22;;;2.50;;
76863;SDS011;65834;52.364;9.754;2023-07-20T07:08:16;5.95;;;2.38;;
76863;SDS011;65834;52.364;9.754;2023-07-20T07:10:46;4.57;;;2.30;;
76863;SDS011;65834;52.364;9.754;2023-07-20T07:13:16;6.38;;;2.70;;
76863;SDS011;65834;52.364;9.754;2023-07-20T07:15:46;4.30;;;2.30;;
76863;SDS011;65834;52.364;9.754;2023-07-20T07:18:15;5.68;;;2.83;;
76863;SDS011;65834;52.364;9.754;2023-07-20T07:20:53;4.47;;;2.28;;
76863;SDS011;65834;52.364;9.754;2023-07-20T07:23:28;3.97;;;2.05;;
76863;SDS011;65834;52.364;9.754;2023-07-20T07:25:58;5.10;;;2.17;;
76863;SDS011;65834;52.364;9.754;2023-07-20T07:28:28;3.75;;;1.80;;
76863;SDS011;65834;52.364;9.754;2023-07-20T07:30:58;3.90;;;1.98;;
76863;SDS011;65834;52.364;9.754;2023-07-20T07:33:28;3.83;;;2.00;;
76863;SDS011;65834;52.364;9.754;2023-07-20T07:36:00;5.38;;;2.22;;
76863;SDS011;65834;52.364;9.754;2023-07-20T07:38:37;3.83;;;1.90;;
76863;SDS011;65834;52.364;9.754;2023-07-20T07:43:39;3.25;;;1.90;;
76863;SDS011;65834;52.364;9.754;2023-07-20T07:46:09;3.55;;;2.20;;
76863;SDS011;65834;52.364;9.754;2023-07-20T07:48:38;5.95;;;2.33;;
76863;SDS011;65834;52.364;9.754;2023-07-20T07:51:11;5.57;;;2.00;;
76863;SDS011;65834;52.364;9.754;2023-07-20T07:53:41;5.22;;;2.33;;
76863;SDS011;65834;52.364;9.754;2023-07-20T07:56:11;5.65;;;3.03;;
76863;SDS011;65834;52.364;9.754;2023-07-20T07:58:41;5.47;;;2.92;;
76863;SDS011;65834;52.364;9.754;2023-07-20T08:01:11;4.90;;;2.15;;
76863;SDS011;65834;52.364;9.754;2023-07-20T08:03:41;6.13;;;2.50;;
76863;SDS011;65834;52.364;9.754;2023-07-20T08:06:18;5.53;;;3.13;;
76863;SDS011;65834;52.364;9.754;2023-07-20T08:08:48;4.53;;;2.50;;
76863;SDS011;65834;52.364;9.754;2023-07-20T08:11:17;3.00;;;2.15;;
76863;SDS011;65834;52.364;9.754;2023-07-20T08:13:47;3.85;;;1.90;;
76863;SDS011;65834;52.364;9.754;2023-07-20T08:16:16;3.05;;;1.85;;
76863;SDS011;65834;52.364;9.754;2023-07-20T08:18:46;5.72;;;1.88;;
76863;SDS011;65834;52.364;9.754;2023-07-20T08:21:19;5.05;;;2.33;;
76863;SDS011;65834;52.364;9.754;2023-07-20T08:23:48;5.28;;;2.17;;
76863;SDS011;65834;52.364;9.754;2023-07-20T08:26:18;4.25;;;1.95;;
76863;SDS011;65834;52.364;9.754;2023-07-20T08:28:49;2.80;;;1.60;;
76863;SDS011;65834;52.364;9.754;2023-07-20T08:31:19;4.53;;;1.60;;
76863;SDS011;65834;52.364;9.754;2023-07-20T08:33:48;2.53;;;1.20;;
76863;SDS011;65834;52.364;9.754;2023-07-20T08:36:21;2.60;;;1.70;;
76863;SDS011;65834;52.364;9.754;2023-07-20T08:41:20;2.75;;;1.83;;
76863;SDS011;65834;52.364;9.754;2023-07-20T08:43:50;4.38;;;2.00;;
76863;SDS011;65834;52.364;9.754;2023-07-20T08:46:23;2.60;;;1.70;;
76863;SDS011;65834;52.364;9.754;2023-07-20T08:48:55;3.95;;;1.73;;
76863;SDS011;65834;52.364;9.754;2023-07-20T08:51:32;3.25;;;1.73;;
76863;SDS011;65834;52.364;9.754;2023-07-20T08:54:03;2.95;;;1.65;;
76863;SDS011;65834;52.364;9.754;2023-07-20T08:56:32;2.28;;;1.60;;
76863;SDS011;65834;52.364;9.754;2023-07-20T08:59:03;3.88;;;1.80;;
76863;SDS011;65834;52.364;9.754;2023-07-20T09:01:33;7.35;;;2.00;;
76863;SDS011;65834;52.364;9.754;2023-07-20T09:04:05;3.17;;;1.40;;
76863;SDS011;65834;52.364;9.754;2023-07-20T09:06:38;2.00;;;1.45;;
76863;SDS011;65834;52.364;9.754;2023-07-20T09:09:11;4.38;;;1.50;;
76863;SDS011;65834;52.364;9.754;2023-07-20T09:11:41;4.38;;;1.33;;
76863;SDS011;65834;52.364;9.754;2023-07-20T09:14:11;2.38;;;1.58;;
76863;SDS011;65834;52.364;9.754;2023-07-20T09:16:47;3.30;;;1.50;;
76863;SDS011;65834;52.364;9.754;2023-07-20T09:19:18;2.78;;;1.30;;
76863;SDS011;65834;52.364;9.754;2023-07-20T09:21:50;4.80;;;1.83;;
76863;SDS011;65834;52.364;9.754;2023-07-20T09:24:20;3.00;;;1.40;;
76863;SDS011;65834;52.364;9.754;2023-07-20T09:26:50;2.65;;;1.20;;
76863;SDS011;65834;52.364;9.754;2023-07-20T09:29:21;1.77;;;1.25;;
76863;SDS011;65834;52.364;9.754;2023-07-20T09:32:00;2.13;;;1.20;;
76863;SDS011;65834;52.364;9.754;2023-07-20T09:34:31;2.72;;;1.30;;
76863;SDS011;65834;52.364;9.754;2023-07-20T09:37:06;3.05;;;1.35;;
76863;SDS011;65834;52.364;9.754;2023-07-20T09:42:31;3.45;;;1.08;;
76863;SDS011;65834;52.364;9.754;2023-07-20T09:47:41;2.70;;;1.20;;
76863;SDS011;65834;52.364;9.754;2023-07-20T09:50:31;2.25;;;1.33;;
76863;SDS011;65834;52.364;9.754;2023-07-20T09:53:03;2.25;;;1.20;;
76863;SDS011;65834;52.364;9.754;2023-07-20T09:55:37;4.30;;;1.40;;
76863;SDS011;65834;52.364;9.754;2023-07-20T09:58:09;1.42;;;0.95;;
76863;SDS011;65834;52.364;9.754;2023-07-20T10:00:39;1.92;;;1.10;;
76863;SDS011;65834;52.364;9.754;2023-07-20T10:03:16;1.98;;;1.10;;
76863;SDS011;65834;52.364;9.754;2023-07-20T10:05:51;2.35;;;1.00;;
76863;SDS011;65834;52.364;9.754;2023-07-20T10:08:26;3.05;;;1.00;;
76863;SDS011;65834;52.364;9.754;2023-07-20T10:11:03;1.77;;;1.02;;
76863;SDS011;65834;52.364;9.754;2023-07-20T10:13:38;3.92;;;1.10;;
76863;SDS011;65834;52.364;9.754;2023-07-20T10:16:10;3.50;;;1.17;;
76863;SDS011;65834;52.364;9.754;2023-07-20T10:18:41;3.58;;;1.25;;
76863;SDS011;65834;52.364;9.754;2023-07-20T10:21:17;2.38;;;1.10;;
76863;SDS011;65834;52.364;9.754;2023-07-20T10:23:54;6.45;;;1.88;;
76863;SDS011;65834;52.364;9.754;2023-07-20T10:26:31;3.25;;;1.40;;
76863;SDS011;65834;52.364;9.754;2023-07-20T10:29:05;2.83;;;1.42;;
76863;SDS011;65834;52.364;9.754;2023-07-20T10:31:37;2.22;;;1.10;;
76863;SDS011;65834;52.364;9.754;2023-07-20T10:34:07;1.58;;;1.30;;
76863;SDS011;65834;52.364;9.754;2023-07-20T10:36:43;2.85;;;0.95;;
76863;SDS011;65834;52.364;9.754;2023-07-20T10:39:24;2.10;;;1.02;;
76863;SDS011;65834;52.364;9.754;2023-07-20T10:42:00;1.50;;;1.05;;
76863;SDS011;65834;52.364;9.754;2023-07-20T10:44:31;1.63;;;1.20;;
76863;SDS011;65834;52.364;9.754;2023-07-20T10:47:00;1.95;;;1.05;;
76863;SDS011;65834;52.364;9.754;2023-07-20T10:49:32;2.22;;;1.20;;
76863;SDS011;65834;52.364;9.754;2023-07-20T10:52:04;1.70;;;1.17;;
76863;SDS011;65834;52.364;9.754;2023-07-20T10:54:46;3.35;;;1.10;;
76863;SDS011;65834;52.364;9.754;2023-07-20T10:57:24;2.50;;;0.90;;
76863;SDS011;65834;52.364;9.754;2023-07-20T11:00:07;3.05;;;0.90;;
76863;SDS011;65834;52.364;9.754;2023-07-20T11:02:47;3.28;;;0.93;;
76863;SDS011;65834;52.364;9.754;2023-07-20T11:08:11;1.98;;;0.90;;
76863;SDS011;65834;52.364;9.754;2023-07-20T11:10:44;2.83;;;0.98;;
76863;SDS011;65834;52.364;9.754;2023-07-20T11:13:17;1.25;;;1.10;;
76863;SDS011;65834;52.364;9.754;2023-07-20T11:16:02;1.02;;;0.80;;
76863;SDS011;65834;52.364;9.754;2023-07-20T11:18:34;2.00;;;1.00;;
76863;SDS011;65834;52.364;9.754;2023-07-20T11:21:10;2.83;;;1.30;;
76863;SDS011;65834;52.364;9.754;2023-07-20T11:23:40;1.80;;;1.00;;
76863;SDS011;65834;52.364;9.754;2023-07-20T11:26:12;2.15;;;1.10;;
76863;SDS011;65834;52.364;9.754;2023-07-20T11:31:13;3.13;;;1.20;;
76863;SDS011;65834;52.364;9.754;2023-07-20T11:33:43;2.83;;;1.17;;
76863;SDS011;65834;52.364;9.754;2023-07-20T11:36:13;1.80;;;0.90;;
76863;SDS011;65834;52.364;9.754;2023-07-20T11:41:17;3.67;;;1.17;;
76863;SDS011;65834;52.364;9.754;2023-07-20T11:43:48;2.88;;;1.00;;
76863;SDS011;65834;52.364;9.754;2023-07-20T11:46:18;3.63;;;1.20;;
76863;SDS011;65834;52.364;9.754;2023-07-20T11:48:48;2.30;;;1.00;;
76863;SDS011;65834;52.364;9.754;2023-07-20T11:51:17;2.20;;;0.98;;
76863;SDS011;65834;52.364;9.754;2023-07-20T11:53:47;2.55;;;1.05;;
76863;SDS011;65834;52.364;9.754;2023-07-20T11:56:20;1.85;;;0.82;;
76863;SDS011;65834;52.364;9.754;2023-07-20T11:58:50;2.17;;;1.08;;
76863;SDS011;65834;52.364;9.754;2023-07-20T12:01:23;2.63;;;1.20;;
76863;SDS011;65834;52.364;9.754;2023-07-20T12:03:55;2.53;;;1.30;;
76863;SDS011;65834;52.364;9.754;2023-07-20T12:06:26;1.42;;;0.80;;
76863;SDS011;65834;52.364;9.754;2023-07-20T12:08:57;3.33;;;1.02;;
76863;SDS011;65834;52.364;9.754;2023-07-20T12:11:37;2.45;;;0.98;;
76863;SDS011;65834;52.364;9.754;2023-07-20T12:14:08;2.30;;;0.85;;
76863;SDS011;65834;52.364;9.754;2023-07-20T12:16:43;2.08;;;1.10;;
76863;SDS011;65834;52.364;9.754;2023-07-20T12:19:13;3.65;;;1.00;;
76863;SDS011;65834;52.364;9.754;2023-07-20T12:21:42;1.92;;;1.20;;
76863;SDS011;65834;52.364;9.754;2023-07-20T12:24:12;4.13;;;1.40;;
76863;SDS011;65834;52.364;9.754;2023-07-20T12:26:44;2.20;;;0.68;;
76863;SDS011;65834;52.364;9.754;2023-07-20T12:29:14;3.15;;;1.10;;
76863;SDS011;65834;52.364;9.754;2023-07-20T12:31:44;0.95;;;0.80;;
76863;SDS011;65834;52.364;9.754;2023-07-20T12:34:13;2.83;;;0.93;;
76863;SDS011;65834;52.364;9.754;2023-07-20T12:36:43;2.92;;;1.13;;
76863;SDS011;65834;52.364;9.754;2023-07-20T12:39:12;2.28;;;1.13;;
76863;SDS011;65834;52.364;9.754;2023-07-20T12:41:44;4.25;;;1.00;;
76863;SDS011;65834;52.364;9.754;2023-07-20T12:44:14;2.05;;;1.17;;
76863;SDS011;65834;52.364;9.754;2023-07-20T12:46:44;3.08;;;1.20;;
76863;SDS011;65834;52.364;9.754;2023-07-20T12:49:13;1.67;;;1.10;;
76863;SDS011;65834;52.364;9.754;2023-07-20T12:51:43;1.40;;;1.10;;
76863;SDS011;65834;52.364;9.754;2023-07-20T12:54:13;3.03;;;1.10;;
76863;SDS011;65834;52.364;9.754;2023-07-20T12:56:45;2.60;;;1.02;;
76863;SDS011;65834;52.364;9.754;2023-07-20T12:59:17;1.88;;;0.88;;
76863;SDS011;65834;52.364;9.754;2023-07-20T13:01:47;0.80;;;0.80;;
76863;SDS011;65834;52.364;9.754;2023-07-20T13:04:17;2.70;;;1.10;;
76863;SDS011;65834;52.364;9.754;2023-07-20T13:06:47;1.15;;;0.95;;
76863;SDS011;65834;52.364;9.754;2023-07-20T13:09:16;2.05;;;1.00;;
76863;SDS011;65834;52.364;9.754;2023-07-20T13:11:48;4.45;;;1.10;;
76863;SDS011;65834;52.364;9.754;2023-07-20T13:14:19;5.88;;;2.13;;
76863;SDS011;65834;52.364;9.754;2023-07-20T13:16:48;3.03;;;1.17;;
76863;SDS011;65834;52.364;9.754;2023-07-20T13:19:18;3.13;;;1.20;;
76863;SDS011;65834;52.364;9.754;2023-07-20T13:21:48;2.22;;;1.10;;
76863;SDS011;65834;52.364;9.754;2023-07-20T13:24:18;2.03;;;1.00;;
76863;SDS011;65834;52.364;9.754;2023-07-20T13:26:50;1.65;;;1.00;;
76863;SDS011;65834;52.364;9.754;2023-07-20T13:29:19;2.38;;;1.17;;
76863;SDS011;65834;52.364;9.754;2023-07-20T13:31:49;2.08;;;0.95;;
76863;SDS011;65834;52.364;9.754;2023-07-20T13:34:21;2.20;;;1.00;;
76863;SDS011;65834;52.364;9.754;2023-07-20T13:36:55;3.55;;;0.95;;
76863;SDS011;65834;52.364;9.754;2023-07-20T13:39:25;1.77;;;1.10;;
76863;SDS011;65834;52.364;9.754;2023-07-20T13:41:57;1.77;;;1.02;;
76863;SDS011;65834;52.364;9.754;2023-07-20T13:44:28;2.53;;;1.35;;
76863;SDS011;65834;52.364;9.754;2023-07-20T13:46:59;2.13;;;1.10;;
76863;SDS011;65834;52.364;9.754;2023-07-20T13:49:31;3.42;;;1.25;;
76863;SDS011;65834;52.364;9.754;2023-07-20T13:52:12;3.00;;;0.95;;
76863;SDS011;65834;52.364;9.754;2023-07-20T13:57:21;4.07;;;1.40;;
76863;SDS011;65834;52.364;9.754;2023-07-20T13:59:53;3.15;;;1.15;;
76863;SDS011;65834;52.364;9.754;2023-07-20T14:02:23;3.65;;;1.30;;
76863;SDS011;65834;52.364;9.754;2023-07-20T14:07:29;2.40;;;1.17;;
76863;SDS011;65834;52.364;9.754;2023-07-20T14:09:59;3.67;;;1.38;;
76863;SDS011;65834;52.364;9.754;2023-07-20T14:15:04;7.03;;;1.35;;
76863;SDS011;65834;52.364;9.754;2023-07-20T14:17:34;2.88;;;1.10;;
76863;SDS011;65834;52.364;9.754;2023-07-20T14:20:05;4.45;;;1.33;;
76863;SDS011;65834;52.364;9.754;2023-07-20T14:22:38;1.88;;;0.95;;
76863;SDS011;65834;52.364;9.754;2023-07-20T14:25:08;1.83;;;0.88;;
76863;SDS011;65834;52.364;9.754;2023-07-20T14:27:40;3.25;;;1.30;;
76863;SDS011;65834;52.364;9.754;2023-07-20T14:30:11;2.90;;;1.33;;
76863;SDS011;65834;52.364;9.754;2023-07-20T14:32:41;5.32;;;1.13;;
76863;SDS011;65834;52.364;9.754;2023-07-20T14:35:11;4.53;;;1.40;;
76863;SDS011;65834;52.364;9.754;2023-07-20T14:37:41;3.92;;;1.30;;
76863;SDS011;65834;52.364;9.754;2023-07-20T14:40:13;3.28;;;1.30;;
76863;SDS011;65834;52.364;9.754;2023-07-20T14:42:46;4.40;;;1.40;;
76863;SDS011;65834;52.364;9.754;2023-07-20T14:45:15;2.78;;;1.30;;
76863;SDS011;65834;52.364;9.754;2023-07-20T14:47:45;2.65;;;1.52;;
76863;SDS011;65834;52.364;9.754;2023-07-20T14:50:20;3.15;;;1.13;;
76863;SDS011;65834;52.364;9.754;2023-07-20T14:52:50;4.75;;;1.50;;
76863;SDS011;65834;52.364;9.754;2023-07-20T14:55:19;1.95;;;0.90;;
76863;SDS011;65834;52.364;9.754;2023-07-20T14:57:52;3.55;;;1.20;;
76863;SDS011;65834;52.364;9.754;2023-07-20T15:00:21;3.33;;;1.38;;
76863;SDS011;65834;52.364;9.754;2023-07-20T15:02:51;2.63;;;1.30;;
76863;SDS011;65834;52.364;9.754;2023-07-20T15:05:23;2.70;;;1.10;;
76863;SDS011;65834;52.364;9.754;2023-07-20T15:07:53;3.60;;;1.00;;
76863;SDS011;65834;52.364;9.754;2023-07-20T15:10:23;4.82;;;1.27;;
76863;SDS011;65834;52.364;9.754;2023-07-20T15:12:55;3.00;;;1.40;;
76863;SDS011;65834;52.364;9.754;2023-07-20T15:15:25;2.97;;;1.10;;
76863;SDS011;65834;52.364;9.754;2023-07-20T15:17:54;1.92;;;1.05;;
76863;SDS011;65834;52.364;9.754;2023-07-20T15:20:24;3.35;;;1.27;;
76863;SDS011;65834;52.364;9.754;2023-07-20T15:22:54;3.30;;;1.20;;
76863;SDS011;65834;52.364;9.754;2023-07-20T15:25:24;3.20;;;1.42;;
76863;SDS011;65834;52.364;9.754;2023-07-20T15:27:56;3.25;;;1.20;;
76863;SDS011;65834;52.364;9.754;2023-07-20T15:30:30;3.15;;;1.02;;
76863;SDS011;65834;52.364;9.754;2023-07-20T15:35:35;1.92;;;1.05;;
76863;SDS011;65834;52.364;9.754;2023-07-20T15:38:06;2.70;;;1.30;;
76863;SDS011;65834;52.364;9.754;2023-07-20T15:40:46;4.47;;;1.20;;
76863;SDS011;65834;52.364;9.754;2023-07-20T15:43:18;2.58;;;1.15;;
76863;SDS011;65834;52.364;9.754;2023-07-20T15:45:48;5.03;;;1.33;;
76863;SDS011;65834;52.364;9.754;2023-07-20T15:48:18;2.97;;;1.35;;
76863;SDS011;65834;52.364;9.754;2023-07-20T15:50:49;3.55;;;1.02;;
76863;SDS011;65834;52.364;9.754;2023-07-20T15:53:19;2.20;;;1.17;;
76863;SDS011;65834;52.364;9.754;2023-07-20T15:55:52;3.97;;;1.50;;